KJAXKSPG

Guest
Details From KJAX - Jacksonville Intl
To KSPG - Albert Whitted
Flight Number -
Tags generated
Created
Modified
Stats Distance 171 nm / 317 km
Max Altitude 14,500 ft / 4,420 m
Waypoints 3
Social Downloads 0
Likes 0
Share VATSIM

Download

Looking for another format? Having issues loading an existing format? Contact us
Advertisement - Login to hide

Notes

Basic altitude profile: - Ascent Rate: 2500ft/min - Ascent Speed: 250kts - Cruise Altitude: 35000ft - Cruise Speed: 420kts - Descent Rate: 1500ft/min - Descent Speed: 250kts Options: - Use NATs: yes - Use PACOTS: yes - Use low airways: yes - Use high airways: yes

Route

KJAX LIMMO KSPG

ID Type Via Altitude Latitude Longitude Leg Dist Tot Dist Heading (true) Name
O KJAX APT - 0 ft / 0 m 30.49304˚ -81.68827˚ - 0 nm - Jacksonville Intl
LIMMO FIX - 14,500 ft / 4,420 m 28.84457˚ -82.23692˚ 103 nm 103 nm 196° / 196° -
O KSPG APT - 0 ft / 0 m 27.76505˚ -82.62674˚ 68 nm 171 nm 198° / 198° Albert Whitted

Altitude Profile

Advertisement - Login to hide

Weather


0- 5 10 15 20 25 30 35+ Temperature / ° C

Clouds and Precipitation
Forecast for 2017-12-11 12:00 UTC. Updated 29 minutes ago

Ground ~20,000 ft ~40,000 ft Winds

KJAX

Details ICAO KJAX (JAX)
Name Jacksonville Intl
Region United States
Timezone America/New_York (UTC-5.0)
Stats Elevation 30 ft / 9 m (AMSL)
Location 30.493037° -81.688273°
Runways 2
Magnetic Variation 6.464° W

METAR

KJAX 110656Z 25003KT 10SM CLR 03/01 A3030 RMK AO2 SLP259 T00280006 $

Decode

TAF

TAF KJAX 110532Z 1106/1206 00000KT P6SM SKC FM111400 26007KT P6SM SKC FM112300 21003KT P6SM SKC

Decode

Departure Runways

ID Width Length Bearing (true) Bearing (mag) Surface Threshold Offset Overrun Length
08 151 ft / 46 m 9,989 ft / 3,045 m 70.45° 76.91° Concrete 0 ft / 0 m 400 ft / 122 m
14 151 ft / 46 m 7,703 ft / 2,348 m 130.70° 137.16° Concrete 0 ft / 0 m 200 ft / 61 m
26 151 ft / 46 m 9,989 ft / 3,045 m 250.47° 256.93° Concrete 0 ft / 0 m 400 ft / 122 m
32 151 ft / 46 m 7,703 ft / 2,348 m 310.70° 317.16° Concrete 0 ft / 0 m 200 ft / 61 m

KSPG

Details ICAO KSPG (SPG)
Name Albert Whitted
Region United States
Timezone America/New_York (UTC-5.0)
Stats Elevation 7 ft / 2 m (AMSL)
Location 27.765051° -82.626745°
Runways 2
Magnetic Variation 5.465° W

METAR

KSPG 110653Z AUTO 00000KT 10SM CLR 12/07 A3028 RMK AO2 SLP252 T01220072

Decode

TAF

Not found

Destination Runways

ID Width Length Bearing (true) Bearing (mag) Surface Threshold Offset Overrun Length
06 75 ft / 23 m 3,676 ft / 1,120 m 61.97° 67.43° Asphalt 558 ft / 170 m 0 ft / 0 m
18 150 ft / 46 m 2,875 ft / 876 m 179.64° 185.10° Asphalt 0 ft / 0 m 0 ft / 0 m
24 75 ft / 23 m 3,676 ft / 1,120 m 241.98° 247.44° Asphalt 263 ft / 80 m 0 ft / 0 m
36 150 ft / 46 m 2,875 ft / 876 m 359.64° 5.10° Asphalt 0 ft / 0 m 0 ft / 0 m